Time;durP1;ratioP1;P1;durP2;ratioP2;P2;SDS_P1;SDS_P2;PMS_P1;PMS_P2;Temp;Humidity;BMP_temperature;BMP_pressure;BME280_temperature;BME280_humidity;BME280_pressure;Samples;Min_cycle;Max_cycle;Signal;HPM_P1;HPM_P2
2021/11/30 00:03:02;;;;;;;17.70;14.30;;;;;;;2.06;77.80;99228.66;108574;1280;22739;-74
2021/11/30 00:05:32;;;;;;;17.70;15.40;;;;;;;2.10;77.67;99231.23;108247;1282;23606;-74
2021/11/30 00:08:05;;;;;;;16.80;15.00;;;;;;;2.13;77.66;99230.80;108333;1284;23603;-73
2021/11/30 00:10:44;;;;;;;16.90;14.70;;;;;;;2.15;77.54;99233.41;108358;1284;21976;-72
2021/11/30 00:13:21;;;;;;;17.40;15.60;;;;;;;2.15;77.36;99236.08;108505;1281;23714;-73
2021/11/30 00:15:52;;;;;;;21.00;16.60;;;;;;;2.12;77.25;99230.04;108723;1279;23646;-73
2021/11/30 00:18:29;;;;;;;16.80;15.00;;;;;;;2.09;77.20;99230.27;108624;1281;23770;-74
2021/11/30 00:21:08;;;;;;;20.50;16.30;;;;;;;2.08;77.34;99231.30;108342;1285;22068;-73
2021/11/30 00:23:38;;;;;;;17.70;14.60;;;;;;;2.06;77.33;99236.48;108287;1285;22994;-72
2021/11/30 00:26:15;;;;;;;15.90;14.20;;;;;;;2.05;77.47;99235.05;108068;1290;22854;-75
2021/11/30 00:28:56;;;;;;;15.70;14.10;;;;;;;2.04;77.57;99242.05;107533;1294;23624;-72
2021/11/30 00:31:25;;;;;;;15.20;13.40;;;;;;;2.04;77.56;99241.36;107588;1292;22521;-74
2021/11/30 00:33:54;;;;;;;18.00;13.60;;;;;;;2.03;77.55;99246.30;107769;1292;23784;-72
2021/11/30 00:36:23;;;;;;;20.30;14.30;;;;;;;2.01;77.58;99248.94;107668;1292;21964;-73
2021/11/30 00:38:53;;;;;;;15.20;13.20;;;;;;;2.00;77.58;99251.43;107895;1286;23593;-73
2021/11/30 00:41:22;;;;;;;16.30;12.40;;;;;;;2.00;77.64;99253.55;108069;1286;22034;-72
2021/11/30 00:43:52;;;;;;;19.20;14.00;;;;;;;1.99;77.58;99255.87;108044;1286;22067;-74
2021/11/30 00:49:04;;;;;;;15.40;12.50;;;;;;;2.00;77.58;99257.05;108267;1286;22095;-74
2021/11/30 00:51:41;;;;;;;17.60;13.80;;;;;;;1.99;77.57;99260.29;108275;1281;23010;-73
2021/11/30 00:54:14;;;;;;;15.00;13.00;;;;;;;1.98;77.71;99261.85;108901;1275;22149;-73
2021/11/30 00:56:48;;;;;;;15.90;12.70;;;;;;;2.00;77.71;99260.86;109022;1275;22045;-73
2021/11/30 00:59:26;;;;;;;14.60;13.10;;;;;;;2.00;77.88;99263.75;108919;1275;22206;-73
2021/11/30 01:02:08;;;;;;;14.70;12.70;;;;;;;2.02;77.85;99264.27;108957;1274;22450;-73
2021/11/30 01:04:45;;;;;;;15.30;13.80;;;;;;;2.03;77.73;99258.94;109013;1275;21996;-72
2021/11/30 01:07:15;;;;;;;13.60;12.10;;;;;;;2.05;77.78;99260.52;108963;1275;22010;-73
2021/11/30 01:09:44;;;;;;;14.20;12.70;;;;;;;2.06;77.71;99262.17;108802;1275;22022;-72
2021/11/30 01:12:14;;;;;;;14.20;12.70;;;;;;;2.07;77.71;99257.59;108439;1282;22028;-72
2021/11/30 01:14:46;;;;;;;16.70;12.80;;;;;;;2.07;77.74;99255.37;108176;1286;24327;-73
2021/11/30 01:17:17;;;;;;;13.80;12.40;;;;;;;2.06;77.68;99257.13;107945;1286;204861;-74
2021/11/30 01:19:50;;;;;;;15.50;13.90;;;;;;;2.07;77.75;99262.77;108186;1286;22008;-73
2021/11/30 01:22:38;;;;;;;14.70;13.00;;;;;;;2.08;77.67;99264.45;108021;1286;22017;-72
2021/11/30 01:25:08;;;;;;;;;;;;;;;2.08;77.65;99265.35;108226;1286;23088;-73
2021/11/30 01:27:38;;;;;;;14.80;12.80;;;;;;;2.00;77.72;99263.39;108154;1286;23104;-72
2021/11/30 01:30:10;;;;;;;14.60;12.70;;;;;;;2.00;77.84;99266.34;108242;1280;22868;-72
2021/11/30 01:32:42;;;;;;;17.10;12.00;;;;;;;2.03;77.82;99270.46;108499;1275;22036;-73
2021/11/30 01:35:14;;;;;;;13.90;12.40;;;;;;;2.04;77.72;99275.52;108725;1275;22005;-73
2021/11/30 01:37:48;;;;;;;12.80;11.50;;;;;;;2.06;77.77;99271.55;108859;1275;21977;-73
2021/11/30 01:40:22;;;;;;;12.70;11.30;;;;;;;2.07;77.69;99275.45;108866;1275;23055;-74
2021/11/30 01:42:55;;;;;;;12.30;11.10;;;;;;;2.07;77.59;99275.83;108843;1277;22791;-72
2021/11/30 01:45:44;;;;;;;;;;;;;;;2.08;77.61;99277.51;108563;1280;23672;-73
2021/11/30 01:50:59;;;;;;;12.70;11.50;;;;;;;2.00;77.61;99279.29;108464;1280;21992;-72
2021/11/30 01:53:29;;;;;;;13.30;12.00;;;;;;;1.99;77.63;99279.52;108490;1280;22020;-74
2021/11/30 01:55:58;;;;;;;14.50;11.50;;;;;;;1.99;77.60;99284.36;108043;1288;22015;-73
2021/11/30 01:58:27;;;;;;;13.20;11.70;;;;;;;1.99;77.51;99289.62;108112;1288;23642;-72
2021/11/30 02:00:56;;;;;;;11.20;10.10;;;;;;;1.97;77.46;99289.43;108119;1288;22881;-73
2021/11/30 02:03:26;;;;;;;11.80;10.70;;;;;;;1.93;77.39;99288.89;108237;1280;21970;-73
2021/11/30 02:05:55;;;;;;;11.30;10.30;;;;;;;1.93;77.44;99294.88;108471;1281;23036;-73
2021/11/30 02:08:25;;;;;;;11.00;9.90;;;;;;;1.90;77.30;99298.57;108502;1281;21994;-73
2021/11/30 02:10:56;;;;;;;10.50;8.90;;;;;;;1.89;77.38;99300.73;108833;1279;22228;-73
2021/11/30 02:13:26;;;;;;;9.00;8.20;;;;;;;1.88;77.38;99296.23;108751;1275;22019;-73
2021/11/30 02:15:56;;;;;;;10.80;9.40;;;;;;;1.86;77.36;99291.39;108474;1280;22754;-73
2021/11/30 02:18:26;;;;;;;9.90;8.90;;;;;;;1.85;77.34;99290.24;108295;1285;21998;-72
2021/11/30 02:21:04;;;;;;;10.20;9.00;;;;;;;1.84;77.27;99289.20;108022;1291;22266;-72
2021/11/30 02:23:38;;;;;;;10.50;9.10;;;;;;;1.82;77.22;99292.27;108084;1290;22171;-72
2021/11/30 02:26:12;;;;;;;10.00;8.40;;;;;;;1.81;77.26;99290.84;107549;1295;23068;-74
2021/11/30 02:28:47;;;;;;;10.10;9.10;;;;;;;1.81;77.25;99290.02;107559;1297;22017;-72
2021/11/30 02:31:21;;;;;;;8.50;7.70;;;;;;;1.80;77.26;99290.05;107606;1294;22467;-73
2021/11/30 02:33:51;;;;;;;10.40;9.40;;;;;;;1.78;77.19;99290.40;107715;1291;22122;-73
2021/11/30 02:36:48;;;;;;;9.60;8.60;;;;;;;1.76;77.21;99297.55;107730;1291;23717;-74
2021/11/30 02:39:24;;;;;;;9.40;8.40;;;;;;;1.72;77.15;99293.92;107670;1291;23082;-73
2021/11/30 02:41:56;;;;;;;11.90;8.10;;;;;;;1.70;77.19;99293.23;107766;1291;21992;-73
2021/11/30 02:44:26;;;;;;;10.10;8.30;;;;;;;1.70;77.08;99298.63;107777;1291;22030;-73
2021/11/30 02:47:02;;;;;;;12.30;8.60;;;;;;;1.70;77.16;99295.84;107884;1291;23718;-72
2021/11/30 02:49:35;;;;;;;12.20;7.90;;;;;;;1.70;77.06;99302.22;108016;1291;22029;-71
2021/11/30 02:52:10;;;;;;;10.60;8.00;;;;;;;1.68;76.98;99302.38;108068;1291;22000;-72
2021/11/30 02:54:44;;;;;;;9.30;7.40;;;;;;;1.66;76.93;99301.10;108101;1286;22069;-72
2021/11/30 02:57:17;;;;;;;7.80;6.80;;;;;;;1.62;76.79;99304.71;108261;1282;22008;-72
2021/11/30 02:59:50;;;;;;;10.90;7.20;;;;;;;1.60;76.87;99308.81;108464;1283;21984;-73
2021/11/30 03:02:26;;;;;;;9.00;6.90;;;;;;;1.60;76.89;99317.32;108218;1284;21990;-70
2021/11/30 03:05:00;;;;;;;15.30;8.00;;;;;;;1.61;76.78;99318.14;108408;1283;23631;-70
2021/11/30 03:07:38;;;;;;;11.80;8.00;;;;;;;1.61;76.70;99317.61;108382;1285;23715;-72
2021/11/30 03:10:13;;;;;;;8.00;6.80;;;;;;;1.61;76.70;99316.05;108638;1281;21981;-71
2021/11/30 03:12:43;;;;;;;9.00;7.40;;;;;;;1.61;76.65;99318.33;108630;1278;22281;-72
2021/11/30 03:15:21;;;;;;;9.20;6.40;;;;;;;1.58;76.52;99314.05;108671;1278;23036;-73
2021/11/30 03:17:51;;;;;;;11.30;7.70;;;;;;;1.58;76.43;99315.74;108990;1275;21980;-71
2021/11/30 03:20:22;;;;;;;10.60;6.70;;;;;;;1.60;76.35;99311.52;108990;1274;23593;-72
2021/11/30 03:22:51;;;;;;;8.90;7.30;;;;;;;1.59;76.19;99314.48;108704;1280;22178;-72
2021/11/30 03:25:20;;;;;;;7.90;6.80;;;;;;;1.60;76.17;99314.25;108755;1278;23817;-71
2021/11/30 03:27:50;;;;;;;8.80;7.20;;;;;;;1.60;75.99;99306.46;108474;1280;23842;-71
2021/11/30 03:30:23;;;;;;;7.80;6.90;;;;;;;1.56;75.90;99301.42;108644;1280;21982;-72
2021/11/30 03:35:40;;;;;;;7.90;7.10;;;;;;;1.52;75.91;99308.53;108564;1281;21987;-72
2021/11/30 03:38:09;;;;;;;7.90;7.20;;;;;;;1.50;75.83;99314.61;108743;1278;22011;-72
2021/11/30 03:40:39;;;;;;;12.10;7.90;;;;;;;1.50;75.94;99320.70;108874;1275;21978;-72
2021/11/30 03:43:08;;;;;;;9.00;8.20;;;;;;;1.50;75.92;99314.81;109170;1274;21971;-72
2021/11/30 03:45:38;;;;;;;8.80;7.80;;;;;;;1.49;75.85;99315.05;108915;1275;22002;-72
2021/11/30 03:48:07;;;;;;;7.60;6.90;;;;;;;1.46;75.67;99308.89;108803;1274;23025;-72
2021/11/30 03:50:36;;;;;;;8.40;7.40;;;;;;;1.41;75.68;99307.56;108908;1274;22028;-72
2021/11/30 03:53:05;;;;;;;9.60;8.00;;;;;;;1.39;75.64;99311.35;108856;1274;24300;-72
2021/11/30 03:55:34;;;;;;;11.90;9.70;;;;;;;1.36;75.47;99309.23;108998;1275;23672;-72
2021/11/30 03:58:04;;;;;;;10.50;9.00;;;;;;;1.32;75.48;99304.08;109130;1274;22033;-72
2021/11/30 04:00:33;;;;;;;14.80;10.50;;;;;;;1.28;75.36;99302.50;109014;1274;22030;-72
2021/11/30 04:03:03;;;;;;;9.70;8.40;;;;;;;1.24;75.32;99301.61;108508;1281;23676;-72
2021/11/30 04:05:33;;;;;;;9.00;7.80;;;;;;;1.22;75.27;99299.02;108445;1281;22011;-72
2021/11/30 04:08:02;;;;;;;8.50;7.70;;;;;;;1.20;75.28;99291.04;108417;1281;21998;-72
2021/11/30 04:10:32;;;;;;;9.30;8.20;;;;;;;1.16;75.22;99290.13;108626;1281;24297;-72
2021/11/30 04:13:01;;;;;;;10.10;8.30;;;;;;;1.16;75.36;99289.16;108219;1286;22958;-73
2021/11/30 04:15:30;;;;;;;10.20;8.20;;;;;;;1.16;75.36;99292.79;108086;1285;23101;-72
2021/11/30 04:17:59;;;;;;;10.40;8.50;;;;;;;1.15;75.39;99285.88;108277;1285;22461;-72
2021/11/30 04:20:29;;;;;;;8.40;6.80;;;;;;;1.15;75.39;99276.77;107754;1286;22145;-72
2021/11/30 04:22:59;;;;;;;9.80;7.00;;;;;;;1.14;75.32;99273.20;108105;1285;22798;-73
2021/11/30 04:25:28;;;;;;;8.90;7.50;;;;;;;1.12;75.40;99267.26;108246;1284;21989;-73
2021/11/30 04:27:58;;;;;;;8.30;7.40;;;;;;;1.11;75.29;99265.11;108051;1285;24391;-73
2021/11/30 04:30:27;;;;;;;10.20;7.80;;;;;;;1.07;75.13;99264.74;108330;1281;21976;-73
2021/11/30 04:32:57;;;;;;;9.30;7.70;;;;;;;1.03;75.02;99267.75;108537;1281;21989;-73
2021/11/30 04:35:26;;;;;;;10.30;7.40;;;;;;;1.00;75.04;99265.77;108608;1281;22014;-73
2021/11/30 04:37:56;;;;;;;14.60;10.20;;;;;;;0.96;75.11;99265.36;108714;1274;22028;-72
2021/11/30 04:40:25;;;;;;;17.20;10.80;;;;;;;0.95;75.21;99261.46;108794;1273;23043;-72
2021/11/30 04:42:54;;;;;;;22.00;13.60;;;;;;;0.94;75.19;99266.98;108643;1275;22028;-72
2021/11/30 04:45:30;;;;;;;20.50;12.00;;;;;;;0.92;75.09;99274.21;108470;1280;21994;-72
2021/11/30 04:48:00;;;;;;;23.90;13.00;;;;;;;0.88;75.09;99276.61;108493;1280;22093;-72
2021/11/30 04:50:32;;;;;;;23.30;13.00;;;;;;;0.86;75.00;99276.10;108415;1280;23706;-72
2021/11/30 04:53:04;;;;;;;26.40;13.90;;;;;;;0.82;74.92;99282.88;108545;1280;23693;-73
2021/11/30 04:55:34;;;;;;;20.00;11.10;;;;;;;0.78;74.98;99283.58;108453;1280;23795;-72
2021/11/30 04:58:05;;;;;;;15.30;10.00;;;;;;;0.76;75.09;99282.19;108024;1287;22006;-72
2021/11/30 05:00:36;;;;;;;15.90;10.10;;;;;;;0.76;75.27;99276.52;108170;1289;22446;-72
2021/11/30 05:03:06;;;;;;;17.10;11.00;;;;;;;0.76;75.32;99274.02;108164;1284;22913;-72
2021/11/30 05:05:35;;;;;;;20.60;13.00;;;;;;;0.77;75.44;99273.58;107714;1291;23713;-72
2021/11/30 05:08:05;;;;;;;18.70;11.90;;;;;;;0.81;75.49;99268.41;108081;1289;22469;-72
2021/11/30 05:10:34;;;;;;;17.50;10.70;;;;;;;0.85;75.42;99266.66;107996;1289;22060;-73
2021/11/30 05:13:04;;;;;;;8.40;7.50;;;;;;;0.87;75.39;99261.98;108001;1289;22750;-72
2021/11/30 05:15:33;;;;;;;9.30;8.40;;;;;;;0.88;75.36;99262.77;107732;1289;22026;-73
2021/11/30 05:18:04;;;;;;;11.00;8.90;;;;;;;0.89;75.37;99257.29;108105;1286;22000;-72
2021/11/30 05:20:34;;;;;;;11.90;9.80;;;;;;;0.90;75.32;99253.63;107950;1291;23707;-72
2021/11/30 05:23:04;;;;;;;10.60;9.60;;;;;;;0.90;75.45;99245.93;108067;1286;23116;-72
2021/11/30 05:25:37;;;;;;;11.60;10.40;;;;;;;0.93;75.61;99241.01;108318;1286;22292;-72
2021/11/30 05:28:11;;;;;;;11.20;9.90;;;;;;;0.95;75.64;99249.03;108369;1285;22029;-72
2021/11/30 05:30:45;;;;;;;11.40;10.20;;;;;;;0.96;75.61;99251.34;108373;1285;24396;-72
2021/11/30 05:33:20;;;;;;;11.50;10.30;;;;;;;0.96;75.70;99250.48;108041;1285;23745;-72
2021/11/30 05:35:55;;;;;;;12.50;11.30;;;;;;;0.99;75.88;99249.34;108345;1285;22000;-72
2021/11/30 05:38:32;;;;;;;12.10;10.90;;;;;;;1.01;75.85;99247.77;108362;1285;21983;-71
2021/11/30 05:41:04;;;;;;;13.20;12.00;;;;;;;1.04;75.90;99243.39;108372;1285;22006;-72
2021/11/30 05:43:37;;;;;;;17.90;16.00;;;;;;;1.04;75.90;99239.50;108270;1285;23032;-72
2021/11/30 05:46:09;;;;;;;14.90;13.50;;;;;;;1.05;75.96;99241.70;108602;1280;23106;-72
2021/11/30 05:48:40;;;;;;;16.40;14.70;;;;;;;1.06;76.02;99231.91;108557;1281;21998;-72
2021/11/30 05:51:14;;;;;;;17.30;15.60;;;;;;;1.09;76.14;99227.88;108565;1273;23621;-72
2021/11/30 05:53:47;;;;;;;19.20;16.10;;;;;;;1.11;76.16;99222.48;108634;1280;21994;-72
2021/11/30 05:56:22;;;;;;;17.70;15.80;;;;;;;1.13;76.30;99214.84;108540;1282;23744;-73
2021/11/30 05:58:54;;;;;;;18.10;16.20;;;;;;;1.16;76.35;99215.23;108517;1281;22009;-72
2021/11/30 06:01:30;;;;;;;19.20;17.20;;;;;;;1.19;76.18;99210.46;108584;1281;23121;-72
2021/11/30 06:04:13;;;;;;;19.30;17.40;;;;;;;1.21;76.17;99208.61;108683;1279;23046;-72
2021/11/30 06:06:45;;;;;;;18.80;16.80;;;;;;;1.23;76.32;99205.44;108618;1280;21983;-72
2021/11/30 06:09:15;;;;;;;21.10;19.00;;;;;;;1.26;76.33;99202.27;108436;1280;22008;-73
2021/11/30 06:11:45;;;;;;;21.60;19.40;;;;;;;1.27;76.24;99198.33;108435;1280;23048;-73
2021/11/30 06:14:14;;;;;;;20.80;18.70;;;;;;;1.27;76.18;99195.75;108645;1280;22495;-72
2021/11/30 06:16:44;;;;;;;20.00;17.90;;;;;;;1.28;76.28;99192.33;108457;1278;21985;-72
2021/11/30 06:19:13;;;;;;;20.60;18.50;;;;;;;1.28;76.22;99191.96;108910;1274;23110;-73
2021/11/30 06:21:45;;;;;;;24.00;19.30;;;;;;;1.30;76.39;99192.68;108811;1273;22032;-72
2021/11/30 06:24:14;;;;;;;18.90;17.10;;;;;;;1.33;76.51;99188.41;108863;1274;23625;-72
2021/11/30 06:26:44;;;;;;;23.20;20.90;;;;;;;1.36;76.56;99186.42;108830;1274;21986;-72
2021/11/30 06:29:13;;;;;;;21.70;19.50;;;;;;;1.39;76.68;99183.35;108726;1280;24310;-72
2021/11/30 06:31:43;;;;;;;22.70;20.50;;;;;;;1.42;76.58;99186.44;108452;1281;21989;-73
2021/11/30 06:34:12;;;;;;;22.60;20.10;;;;;;;1.41;76.45;99182.48;108287;1287;22871;-72
2021/11/30 06:36:41;;;;;;;28.70;19.60;;;;;;;1.42;76.43;99184.00;108276;1287;22949;-72
2021/11/30 06:39:11;;;;;;;20.80;18.60;;;;;;;1.43;76.46;99179.88;108004;1291;22017;-74
2021/11/30 06:41:40;;;;;;;20.40;17.70;;;;;;;1.43;76.46;99180.63;107791;1291;24334;-73
2021/11/30 06:44:20;;;;;;;22.50;20.10;;;;;;;1.43;76.46;99176.08;107776;1291;21996;-74
2021/11/30 06:46:50;;;;;;;22.40;19.80;;;;;;;1.42;76.43;99169.27;107761;1288;23611;-73
2021/11/30 06:49:19;;;;;;;25.40;22.70;;;;;;;1.42;76.62;99168.91;108218;1287;21997;-73
2021/11/30 06:51:48;;;;;;;25.40;22.70;;;;;;;1.43;76.48;99163.03;108082;1281;23860;-72
2021/11/30 06:54:17;;;;;;;25.50;22.80;;;;;;;1.42;76.49;99161.95;108435;1281;22070;-73
2021/11/30 06:56:47;;;;;;;27.50;24.50;;;;;;;1.42;76.52;99155.04;108494;1277;23051;-72
2021/11/30 06:59:16;;;;;;;26.80;22.50;;;;;;;1.39;76.53;99148.80;108773;1274;21986;-73
2021/11/30 07:01:45;;;;;;;25.60;22.60;;;;;;;1.40;76.73;99152.55;109050;1274;21975;-72
2021/11/30 07:04:15;;;;;;;29.20;23.90;;;;;;;1.43;76.80;99146.23;108890;1274;21977;-73
2021/11/30 07:12:03;;;;;;;31.50;25.30;;;;;;;1.40;76.95;99136.80;108939;1274;24470;-72
2021/11/30 07:14:33;;;;;;;32.10;25.30;;;;;;;1.40;76.88;99138.36;108615;1278;21994;-72
2021/11/30 07:17:03;;;;;;;27.30;23.40;;;;;;;1.40;76.93;99130.86;108560;1278;22911;-72
2021/11/30 07:19:36;;;;;;;23.30;20.70;;;;;;;1.41;76.85;99124.70;108715;1278;22080;-72
2021/11/30 07:22:05;;;;;;;27.40;21.00;;;;;;;1.44;76.93;99124.85;108336;1283;23653;-73
2021/11/30 07:24:50;;;;;;;31.20;23.10;;;;;;;1.45;76.94;99125.42;108445;1283;22063;-72
2021/11/30 07:27:20;;;;;;;30.10;26.90;;;;;;;1.46;77.01;99115.39;108324;1283;22011;-71
2021/11/30 07:29:50;;;;;;;31.30;27.20;;;;;;;1.48;77.02;99113.34;108433;1284;21986;-72
2021/11/30 07:32:19;;;;;;;33.00;29.40;;;;;;;1.49;77.08;99111.67;108455;1283;22044;-73
2021/11/30 07:34:51;;;;;;;33.80;27.90;;;;;;;1.51;77.11;99106.48;108418;1284;22244;-72
2021/11/30 07:37:20;;;;;;;38.60;33.50;;;;;;;1.53;77.05;99100.41;108351;1285;22839;-72
2021/11/30 07:39:53;;;;;;;52.10;43.80;;;;;;;1.53;76.95;99096.45;108767;1274;23685;-72
2021/11/30 07:42:24;;;;;;;50.40;42.40;;;;;;;1.54;77.09;99092.64;109071;1274;22876;-71
2021/11/30 07:44:53;;;;;;;61.50;51.70;;;;;;;1.56;77.00;99090.09;108754;1278;22211;-72
2021/11/30 07:47:22;;;;;;;43.70;36.40;;;;;;;1.60;77.21;99086.38;108740;1277;23861;-73
2021/11/30 07:49:52;;;;;;;41.90;35.90;;;;;;;1.67;77.30;99080.71;108419;1284;22003;-72
2021/11/30 07:52:22;;;;;;;38.80;33.40;;;;;;;1.76;77.40;99079.73;108462;1283;22762;-72
2021/11/30 07:54:52;;;;;;;39.10;34.90;;;;;;;1.78;77.08;99073.05;108187;1284;23773;-72
2021/11/30 07:57:22;;;;;;;44.70;36.70;;;;;;;1.83;77.25;99067.55;108210;1284;22093;-71
2021/11/30 07:59:51;;;;;;;38.60;33.20;;;;;;;1.90;77.15;99060.51;108345;1284;21968;-72
2021/11/30 08:02:20;;;;;;;33.90;30.30;;;;;;;1.91;76.92;99056.59;108295;1281;21988;-72
2021/11/30 08:04:51;;;;;;;31.80;27.20;;;;;;;1.95;76.99;99050.35;108691;1280;22043;-73
2021/11/30 08:07:21;;;;;;;32.90;29.60;;;;;;;1.99;77.05;99048.67;108665;1278;23047;-72
2021/11/30 08:09:50;;;;;;;35.00;31.30;;;;;;;2.03;76.89;99042.82;108515;1281;22010;-73
2021/11/30 08:12:19;;;;;;;28.10;25.30;;;;;;;2.03;76.63;99036.87;108322;1284;23071;-71
2021/11/30 08:14:49;;;;;;;32.20;28.70;;;;;;;2.02;76.62;99028.98;107900;1286;22045;-71
2021/11/30 08:17:19;;;;;;;33.00;29.60;;;;;;;2.03;76.58;99027.85;108245;1285;22028;-72
2021/11/30 08:19:49;;;;;;;35.20;30.80;;;;;;;2.05;76.53;99019.89;108044;1286;23862;-72
2021/11/30 08:22:30;;;;;;;32.00;28.60;;;;;;;2.08;76.52;99013.52;108048;1286;22054;-75
2021/11/30 08:25:13;;;;;;;30.00;27.00;;;;;;;2.10;76.47;99008.73;108156;1285;23621;-75
2021/11/30 08:27:44;;;;;;;31.10;27.80;;;;;;;2.12;76.40;99001.43;108177;1286;22742;-75
2021/11/30 08:30:30;;;;;;;35.60;31.90;;;;;;;2.15;76.27;98994.38;108331;1281;22291;-76
2021/11/30 08:33:24;;;;;;;54.90;46.10;;;;;;;2.23;76.42;98992.63;108233;1283;22006;-76
2021/11/30 08:36:03;;;;;;;34.70;29.70;;;;;;;2.34;76.61;98988.19;108469;1280;23695;-75
2021/11/30 08:38:38;;;;;;;29.20;26.20;;;;;;;2.43;76.42;98984.23;108492;1281;23730;-76
2021/11/30 08:41:20;;;;;;;27.30;24.70;;;;;;;2.46;75.97;98972.52;108411;1282;22019;-76
2021/11/30 08:43:56;;;;;;;30.40;27.20;;;;;;;2.47;75.90;98969.27;108447;1282;22094;-75
2021/11/30 08:46:46;;;;;;;34.40;30.90;;;;;;;2.51;75.84;98963.66;108189;1288;22016;-75
2021/11/30 08:49:22;;;;;;;33.90;30.40;;;;;;;2.54;75.72;98962.33;108078;1286;21996;-76
2021/11/30 08:52:01;;;;;;;31.60;28.40;;;;;;;2.56;75.57;98953.02;108480;1281;22029;-76
2021/11/30 08:54:35;;;;;;;33.70;30.00;;;;;;;2.58;75.35;98946.45;108432;1281;22239;-75
2021/11/30 08:57:14;;;;;;;36.10;30.00;;;;;;;2.64;75.44;98941.58;108135;1288;21998;-76
2021/11/30 08:59:46;;;;;;;26.60;24.00;;;;;;;2.70;75.63;98935.57;108057;1288;23063;-76
2021/11/30 09:02:20;;;;;;;30.10;27.00;;;;;;;2.74;75.20;98935.10;107786;1293;21995;-76
2021/11/30 09:05:18;;;;;;;29.20;25.90;;;;;;;2.79;75.17;98923.34;108081;1286;22001;-76
2021/11/30 09:08:27;;;;;;;;;;;;;;;;;;;;;
2021/11/30 09:11:32;;;;;;;33.50;30.00;;;;;;;2.76;74.58;98902.65;108143;1288;21985;-74
2021/11/30 09:14:37;;;;;;;26.30;23.10;;;;;;;2.75;74.67;98890.35;108190;1281;22030;-75
2021/11/30 09:17:08;;;;;;;28.90;25.60;;;;;;;2.73;74.28;98881.27;108553;1281;22401;-73
2021/11/30 09:19:40;;;;;;;27.40;24.70;;;;;;;2.72;74.36;98874.85;108488;1275;22939;-72
2021/11/30 09:22:10;;;;;;;28.00;24.90;;;;;;;2.69;74.23;98863.81;108747;1275;22437;-73
2021/11/30 09:24:41;;;;;;;26.50;23.90;;;;;;;2.66;74.16;98857.35;108834;1275;22764;-73
2021/11/30 09:27:11;;;;;;;37.40;33.40;;;;;;;2.65;74.30;98851.67;108820;1275;22024;-73
2021/11/30 09:29:40;;;;;;;24.60;22.10;;;;;;;2.62;74.16;98841.77;108648;1275;22525;-72
2021/11/30 09:32:11;;;;;;;25.20;22.50;;;;;;;2.57;73.98;98831.67;108827;1275;24178;-73
2021/11/30 09:35:01;;;;;;;25.50;22.60;;;;;;;2.46;73.84;98815.40;108884;1275;21999;-73
2021/11/30 09:37:30;;;;;;;25.00;22.40;;;;;;;2.40;74.09;98809.77;108879;1275;23635;-75
2021/11/30 09:40:14;;;;;;;29.20;26.20;;;;;;;2.37;74.36;98799.06;108901;1275;21973;-76
2021/11/30 09:42:44;;;;;;;32.50;29.30;;;;;;;2.36;74.46;98788.92;108484;1280;21995;-72
2021/11/30 09:45:14;;;;;;;25.60;20.70;;;;;;;2.39;74.78;98779.08;108502;1280;22842;-73
2021/11/30 09:47:45;;;;;;;26.50;23.60;;;;;;;2.44;74.99;98762.42;108378;1280;23086;-74
2021/11/30 09:50:18;;;;;;;26.60;23.70;;;;;;;2.50;75.00;98753.40;108475;1280;22004;-72
2021/11/30 09:52:53;;;;;;;24.50;21.80;;;;;;;2.51;74.61;98742.20;108456;1280;22006;-73
2021/11/30 09:55:24;;;;;;;26.00;23.30;;;;;;;2.48;74.52;98735.61;108408;1280;23634;-73
2021/11/30 09:57:53;;;;;;;23.20;20.90;;;;;;;2.46;74.60;98722.76;108465;1280;21990;-74
2021/11/30 10:00:24;;;;;;;26.40;23.80;;;;;;;2.47;74.68;98715.86;108412;1275;22146;-73
2021/11/30 10:02:56;;;;;;;28.60;25.70;;;;;;;2.47;74.61;98705.52;108836;1274;23704;-73
2021/11/30 10:05:27;;;;;;;22.60;20.30;;;;;;;2.40;74.35;98698.87;108876;1275;22035;-73
2021/11/30 10:08:00;;;;;;;22.40;20.20;;;;;;;2.31;74.27;98689.52;108903;1274;22029;-73
2021/11/30 10:10:36;;;;;;;22.80;20.40;;;;;;;2.22;74.35;98694.48;109108;1274;21980;-73
2021/11/30 10:13:12;;;;;;;26.10;23.30;;;;;;;2.21;74.76;98695.66;108958;1273;22771;-73
2021/11/30 10:16:08;;;;;;;30.70;27.40;;;;;;;2.24;74.91;98696.39;108848;1275;22005;-73
2021/11/30 10:18:43;;;;;;;28.50;25.60;;;;;;;2.23;75.06;98683.06;108509;1283;21985;-74
2021/11/30 10:21:24;;;;;;;34.90;29.90;;;;;;;2.21;74.92;98670.55;108489;1281;23689;-73
2021/11/30 10:23:59;;;;;;;30.80;27.60;;;;;;;2.20;75.01;98669.18;108305;1284;22999;-73
2021/11/30 10:26:41;;;;;;;22.30;20.10;;;;;;;2.21;75.08;98663.67;108480;1284;21991;-72
2021/11/30 10:29:15;;;;;;;27.70;24.70;;;;;;;2.19;75.03;98645.27;108440;1284;23732;-75
2021/11/30 10:31:49;;;;;;;30.70;27.50;;;;;;;2.21;75.19;98632.41;108517;1280;22089;-73
2021/11/30 10:34:26;;;;;;;27.00;24.20;;;;;;;2.21;75.06;98623.02;108536;1281;21992;-74
2021/11/30 10:37:09;;;;;;;23.50;21.10;;;;;;;2.23;75.11;98607.70;108545;1281;22536;-73
2021/11/30 10:39:41;;;;;;;23.40;20.90;;;;;;;2.26;75.20;98593.80;108125;1288;23757;-73
2021/11/30 10:42:24;;;;;;;27.80;23.20;;;;;;;2.32;75.41;98575.78;108058;1288;21995;-73
2021/11/30 10:44:57;;;;;;;;;;;;;;;2.46;75.71;98558.09;108110;1288;23818;-72
2021/11/30 10:47:31;;;;;;;18.90;17.00;;;;;;;2.56;76.07;98546.09;108223;1284;21998;-73
2021/11/30 10:50:11;;;;;;;18.90;16.90;;;;;;;2.67;75.84;98532.74;108157;1288;23795;-73
2021/11/30 10:52:42;;;;;;;21.40;18.90;;;;;;;2.83;75.75;98529.54;108145;1288;22069;-73
2021/11/30 10:55:16;;;;;;;27.70;23.40;;;;;;;2.93;75.27;98523.41;107791;1288;22025;-73
2021/11/30 10:57:48;;;;;;;22.70;19.90;;;;;;;2.91;74.27;98515.41;108140;1282;22773;-73
2021/11/30 11:00:31;;;;;;;;;;;;;;;2.90;74.12;98512.05;108399;1285;23672;-74
2021/11/30 11:03:10;;;;;;;27.80;22.10;;;;;;;2.84;74.18;98499.80;108521;1282;22011;-74
2021/11/30 11:08:52;;;;;;;56.70;42.40;;;;;;;2.87;73.80;98484.77;108522;1280;22991;-73
2021/11/30 11:11:33;;;;;;;32.20;26.00;;;;;;;2.88;73.66;98475.73;108519;1282;22671;-73
2021/11/30 11:14:20;;;;;;;29.60;26.50;;;;;;;2.89;73.53;98464.00;108722;1275;22489;-73
2021/11/30 11:16:53;;;;;;;25.40;22.70;;;;;;;2.90;73.39;98451.73;108964;1274;21993;-74
2021/11/30 11:19:44;;;;;;;17.60;15.10;;;;;;;2.84;72.85;98445.59;108744;1273;21970;-73
2021/11/30 11:22:19;;;;;;;15.90;14.10;;;;;;;2.76;72.78;98436.52;109061;1274;22028;-73
2021/11/30 11:24:51;;;;;;;17.60;15.90;;;;;;;2.73;72.67;98431.13;109120;1273;24384;-73
2021/11/30 11:27:42;;;;;;;21.60;15.80;;;;;;;2.68;72.54;98421.56;109107;1274;23808;-73
2021/11/30 11:30:13;;;;;;;24.90;21.90;;;;;;;2.63;72.47;98417.25;109219;1273;22005;-73
2021/11/30 11:32:43;;;;;;;18.40;16.50;;;;;;;2.61;72.61;98406.05;108721;1278;22036;-73
2021/11/30 11:35:14;;;;;;;19.30;15.30;;;;;;;2.57;72.42;98399.23;108481;1283;22428;-73
2021/11/30 11:37:44;;;;;;;20.10;17.50;;;;;;;2.51;72.38;98385.57;108032;1289;22005;-73
2021/11/30 11:40:14;;;;;;;19.10;15.50;;;;;;;2.42;72.31;98372.07;107857;1289;23698;-74
2021/11/30 11:42:43;;;;;;;18.70;16.70;;;;;;;2.33;72.45;98365.32;107836;1288;21989;-73
2021/11/30 11:45:15;;;;;;;23.00;18.90;;;;;;;2.28;72.69;98349.88;108029;1289;22076;-73
2021/11/30 11:47:44;;;;;;;29.80;26.50;;;;;;;2.21;72.73;98346.05;108141;1288;21989;-73
2021/11/30 11:50:14;;;;;;;32.90;27.70;;;;;;;2.11;72.84;98333.67;108095;1284;23066;-73
2021/11/30 11:52:43;;;;;;;28.50;24.30;;;;;;;2.13;73.30;98326.89;108377;1281;22006;-73
2021/11/30 11:55:17;;;;;;;23.80;21.30;;;;;;;2.12;73.25;98320.71;108461;1279;22220;-73
2021/11/30 11:58:02;;;;;;;27.40;22.70;;;;;;;2.05;73.26;98312.02;108729;1278;22775;-73
2021/11/30 12:00:33;;;;;;;25.80;21.90;;;;;;;2.02;73.62;98301.67;108654;1278;22745;-73
2021/11/30 12:03:07;;;;;;;25.80;23.10;;;;;;;1.96;73.59;98292.63;108420;1283;23735;-74
2021/11/30 12:05:40;;;;;;;33.30;27.10;;;;;;;1.92;73.89;98288.81;108215;1285;21990;-73
2021/11/30 12:08:21;;;;;;;30.40;24.90;;;;;;;1.92;74.16;98280.00;108386;1284;22846;-72